Time;durP1;ratioP1;P1;durP2;ratioP2;P2;SDS_P1;SDS_P2;PMS_P1;PMS_P2;Temp;Humidity;BMP_temperature;BMP_pressure;BME280_temperature;BME280_humidity;BME280_pressure;Samples;Min_cycle;Max_cycle;Signal;HPM_P1;HPM_P2
2021/10/26 00:01:19;;;;;;;4.78;1.90;;;29.40;49.90;;;;;;4263122;27;20414;-68
2021/10/26 00:03:22;;;;;;;4.05;1.83;;;29.50;50.00;;;;;;4266532;27;20103;-72
2021/10/26 00:05:25;;;;;;;3.25;2.10;;;29.40;49.90;;;;;;4256656;27;20126;-67
2021/10/26 00:07:29;;;;;;;5.50;1.77;;;29.40;49.90;;;;;;4268342;27;20483;-73
2021/10/26 00:09:33;;;;;;;3.33;1.70;;;29.40;49.90;;;;;;4260977;27;20062;-70
2021/10/26 00:11:36;;;;;;;2.55;1.77;;;29.50;49.90;;;;;;4262423;27;20499;-66
2021/10/26 00:13:39;;;;;;;3.20;1.80;;;29.50;49.90;;;;;;4266302;27;20065;-73
2021/10/26 00:15:42;;;;;;;3.22;1.63;;;29.50;49.80;;;;;;4256411;27;20062;-70
2021/10/26 00:17:46;;;;;;;3.03;1.70;;;29.50;49.80;;;;;;4268422;27;20054;-65
2021/10/26 00:19:49;;;;;;;4.15;1.77;;;29.50;49.90;;;;;;4242784;27;20545;-73
2021/10/26 00:21:52;;;;;;;2.65;1.85;;;29.50;49.80;;;;;;4243720;27;20493;-70
2021/10/26 00:23:56;;;;;;;2.78;1.52;;;29.50;49.80;;;;;;4266908;27;20103;-72
2021/10/26 00:26:00;;;;;;;2.53;1.65;;;29.50;49.90;;;;;;4256434;27;20127;-76
2021/10/26 00:28:03;;;;;;;4.20;1.70;;;29.50;49.80;;;;;;4268367;27;20061;-78
2021/10/26 00:30:07;;;;;;;2.20;1.70;;;29.50;49.80;;;;;;4261833;27;20047;-72
2021/10/26 00:32:10;;;;;;;1.83;1.48;;;29.50;49.80;;;;;;4261253;27;20081;-72
2021/10/26 00:34:13;;;;;;;3.10;1.70;;;29.50;49.70;;;;;;4267311;27;20132;-69
2021/10/26 00:36:17;;;;;;;3.05;1.55;;;29.50;49.70;;;;;;4256182;27;20111;-74
2021/10/26 00:38:20;;;;;;;3.00;1.42;;;29.50;49.70;;;;;;4268147;27;20107;-75
2021/10/26 00:40:24;;;;;;;3.85;2.10;;;29.50;49.70;;;;;;4262451;27;20051;-67
2021/10/26 00:42:27;;;;;;;2.47;1.65;;;29.50;49.70;;;;;;4261039;27;20600;-74
2021/10/26 00:44:31;;;;;;;2.53;1.63;;;29.50;49.70;;;;;;4267404;27;20053;-72
2021/10/26 00:46:36;;;;;;;2.28;1.60;;;29.50;49.70;;;;;;4255849;27;20059;-76
2021/10/26 00:48:39;;;;;;;5.00;2.00;;;29.50;49.60;;;;;;4267764;27;20057;-74
2021/10/26 00:50:42;;;;;;;2.55;1.50;;;29.50;49.60;;;;;;4259419;27;20104;-75
2021/10/26 00:52:45;;;;;;;2.80;1.63;;;29.50;49.60;;;;;;4257616;27;20046;-69
2021/10/26 00:54:49;;;;;;;3.95;1.63;;;29.50;49.60;;;;;;4265078;27;20051;-68
2021/10/26 00:56:55;;;;;;;3.45;1.40;;;29.50;49.60;;;;;;4252938;27;20085;-71
2021/10/26 00:59:01;;;;;;;2.58;1.77;;;29.50;49.60;;;;;;4265444;27;20406;-70
2021/10/26 01:01:04;;;;;;;2.95;1.55;;;29.50;49.50;;;;;;4259270;27;20055;-72
2021/10/26 01:03:07;;;;;;;1.65;1.23;;;29.50;49.50;;;;;;4257664;27;20047;-68
2021/10/26 01:05:12;;;;;;;1.98;1.27;;;29.50;49.50;;;;;;4264881;27;20047;-69
2021/10/26 01:07:15;;;;;;;5.43;1.75;;;29.50;49.50;;;;;;4253004;27;20051;-75
2021/10/26 01:09:18;;;;;;;2.40;1.33;;;29.50;49.40;;;;;;4264990;27;20047;-65
2021/10/26 01:11:22;;;;;;;2.97;1.42;;;29.60;49.50;;;;;;4259563;27;20435;-68
2021/10/26 01:13:27;;;;;;;2.10;1.30;;;29.50;49.50;;;;;;4257045;27;20051;-75
2021/10/26 01:15:32;;;;;;;3.28;1.38;;;29.50;49.40;;;;;;4264326;27;20384;-75
2021/10/26 01:17:35;;;;;;;2.63;1.48;;;29.50;49.40;;;;;;4252591;27;20128;-76
2021/10/26 01:19:44;;;;;;;4.05;1.40;;;29.50;49.40;;;;;;4264812;27;20142;-74
2021/10/26 01:21:47;;;;;;;3.03;1.50;;;29.60;49.50;;;;;;4240910;27;20112;-75
2021/10/26 01:23:50;;;;;;;2.63;1.40;;;29.50;49.30;;;;;;4258726;27;20051;-70
2021/10/26 01:25:54;;;;;;;1.73;1.13;;;29.60;49.40;;;;;;4264292;27;20061;-76
2021/10/26 01:27:57;;;;;;;2.15;1.40;;;29.60;49.40;;;;;;4252092;27;20561;-71
2021/10/26 01:30:00;;;;;;;2.95;1.30;;;29.50;49.30;;;;;;4264704;27;20107;-70
2021/10/26 01:32:05;;;;;;;2.95;1.50;;;29.60;49.40;;;;;;4259144;27;20051;-68
2021/10/26 01:34:07;;;;;;;;;;;29.50;49.30;;;;;;4257359;27;20460;-70
2021/10/26 01:36:15;;;;;;;2.67;1.30;;;29.50;49.30;;;;;;4264347;27;20348;-75
2021/10/26 01:38:18;;;;;;;1.70;1.30;;;29.50;49.30;;;;;;4252257;27;20576;-71
2021/10/26 01:40:22;;;;;;;2.40;1.50;;;29.50;49.30;;;;;;4264426;27;20062;-76
2021/10/26 01:42:25;;;;;;;3.00;1.50;;;29.60;49.40;;;;;;4259128;27;20054;-70
2021/10/26 01:44:28;;;;;;;3.03;1.40;;;29.50;49.20;;;;;;4238688;27;20055;-75
2021/10/26 01:46:32;;;;;;;2.80;1.50;;;29.60;49.30;;;;;;4263899;27;20091;-67
2021/10/26 01:48:35;;;;;;;2.03;1.25;;;29.60;49.30;;;;;;4251219;27;20051;-71
2021/10/26 01:50:38;;;;;;;1.70;1.23;;;29.50;49.20;;;;;;4264313;27;20116;-67
2021/10/26 01:52:43;;;;;;;2.17;1.30;;;29.50;49.20;;;;;;4241792;27;20047;-67
2021/10/26 01:54:46;;;;;;;1.75;1.20;;;29.50;49.20;;;;;;4255131;27;20058;-74
2021/10/26 01:56:49;;;;;;;3.45;1.15;;;29.50;49.20;;;;;;4247009;27;20744;-77
2021/10/26 01:58:52;;;;;;;2.55;1.42;;;29.50;49.10;;;;;;4259543;27;20046;-74
2021/10/26 02:00:55;;;;;;;2.60;1.40;;;29.60;49.20;;;;;;4246343;27;20048;-69
2021/10/26 02:02:59;;;;;;;2.00;1.10;;;29.50;49.10;;;;;;4249709;27;20047;-73
2021/10/26 02:05:03;;;;;;;1.90;1.13;;;29.50;49.10;;;;;;4255303;27;20055;-74
2021/10/26 02:07:06;;;;;;;1.40;1.00;;;29.50;49.10;;;;;;4247016;27;20078;-74
2021/10/26 02:09:11;;;;;;;2.05;1.25;;;29.60;49.10;;;;;;4251216;27;20047;-72
2021/10/26 02:11:14;;;;;;;1.98;1.17;;;29.50;49.00;;;;;;4228580;28;20051;-76
2021/10/26 02:13:17;;;;;;;2.72;1.13;;;29.50;49.00;;;;;;4250344;27;20058;-73
2021/10/26 02:15:21;;;;;;;2.60;1.50;;;29.60;49.10;;;;;;4237162;27;20074;-76
2021/10/26 02:17:24;;;;;;;1.35;1.00;;;29.60;49.10;;;;;;4246767;27;20779;-72
2021/10/26 02:19:27;;;;;;;3.47;1.27;;;29.50;49.00;;;;;;4258574;27;20103;-75
2021/10/26 02:21:30;;;;;;;2.80;1.17;;;29.50;49.00;;;;;;4246785;27;20051;-74
2021/10/26 02:23:33;;;;;;;2.30;1.30;;;29.50;49.00;;;;;;4251754;27;20054;-76
2021/10/26 02:25:38;;;;;;;2.90;1.35;;;29.60;49.00;;;;;;4235952;27;20503;-70
2021/10/26 02:27:41;;;;;;;2.20;1.13;;;29.50;48.90;;;;;;4263768;27;20055;-71
2021/10/26 02:29:44;;;;;;;2.05;1.30;;;29.50;49.00;;;;;;4251858;27;20051;-75
2021/10/26 02:31:47;;;;;;;2.33;1.10;;;29.60;49.00;;;;;;4262625;27;20062;-75
2021/10/26 02:33:50;;;;;;;2.92;1.38;;;29.60;49.00;;;;;;4260950;27;20046;-75
2021/10/26 02:35:53;;;;;;;2.17;1.20;;;29.50;48.90;;;;;;4253161;27;20058;-75
2021/10/26 02:37:57;;;;;;;2.58;1.00;;;29.50;48.90;;;;;;4263570;27;20138;-74
2021/10/26 02:40:00;;;;;;;1.75;0.93;;;29.50;48.90;;;;;;4252153;27;20055;-75
2021/10/26 02:42:04;;;;;;;3.95;1.33;;;29.50;48.90;;;;;;4261600;27;20057;-68
2021/10/26 02:44:07;;;;;;;;;;;29.50;48.80;;;;;;4261525;27;20055;-75
2021/10/26 02:46:10;;;;;;;2.15;1.20;;;29.60;48.90;;;;;;4252532;27;20274;-74
2021/10/26 02:48:14;;;;;;;2.08;1.00;;;29.50;48.90;;;;;;4263567;27;20078;-71
2021/10/26 02:50:19;;;;;;;2.33;1.20;;;29.60;48.90;;;;;;4252550;27;20054;-73
2021/10/26 02:52:22;;;;;;;3.17;1.30;;;29.50;48.90;;;;;;4261468;27;20051;-74
2021/10/26 02:54:25;;;;;;;2.95;1.30;;;29.50;48.80;;;;;;4261402;27;20042;-76
2021/10/26 02:56:28;;;;;;;1.35;1.05;;;29.60;48.80;;;;;;4246305;27;20080;-71
2021/10/26 02:58:33;;;;;;;2.33;1.02;;;29.50;48.80;;;;;;4246151;27;20070;-67
2021/10/26 03:00:36;;;;;;;2.85;1.33;;;29.50;48.80;;;;;;4237997;27;20123;-72
2021/10/26 03:02:40;;;;;;;3.08;1.00;;;29.50;48.80;;;;;;4248382;27;20402;-72
2021/10/26 03:04:43;;;;;;;1.45;0.90;;;29.50;48.80;;;;;;4247030;27;20047;-75
2021/10/26 03:06:46;;;;;;;1.48;0.85;;;29.50;48.70;;;;;;4251705;27;20050;-68
2021/10/26 03:08:49;;;;;;;1.58;0.93;;;29.50;48.70;;;;;;4262933;27;20047;-74
2021/10/26 03:10:53;;;;;;;1.45;0.90;;;29.60;48.80;;;;;;4252990;27;20519;-68
2021/10/26 03:12:56;;;;;;;2.72;1.10;;;29.50;48.70;;;;;;4259683;27;20613;-75
2021/10/26 03:15:00;;;;;;;1.83;1.10;;;29.50;48.70;;;;;;4259490;27;20503;-66
2021/10/26 03:17:03;;;;;;;3.05;1.40;;;29.60;48.80;;;;;;4257209;27;20502;-74
2021/10/26 03:19:07;;;;;;;3.97;1.02;;;29.60;48.70;;;;;;4245693;27;20132;-75
2021/10/26 03:21:10;;;;;;;1.98;1.00;;;29.50;48.60;;;;;;4254660;27;20505;-74
2021/10/26 03:23:13;;;;;;;1.35;0.88;;;29.50;48.60;;;;;;4249053;27;20047;-71
2021/10/26 03:25:16;;;;;;;2.33;0.90;;;29.50;48.60;;;;;;4247090;27;20047;-72
2021/10/26 03:27:20;;;;;;;2.55;0.98;;;29.50;48.60;;;;;;4257272;27;20051;-70
2021/10/26 03:29:23;;;;;;;2.92;0.95;;;29.50;48.70;;;;;;4245451;27;20051;-69
2021/10/26 03:31:28;;;;;;;1.70;0.90;;;29.50;48.60;;;;;;4253872;27;20054;-72
2021/10/26 03:33:32;;;;;;;2.80;1.02;;;29.50;48.60;;;;;;4249351;27;20055;-68
2021/10/26 03:35:35;;;;;;;1.30;0.98;;;29.50;48.60;;;;;;4246835;27;20042;-70
2021/10/26 03:37:40;;;;;;;1.90;1.00;;;29.50;48.60;;;;;;4257206;27;20441;-71
2021/10/26 03:39:44;;;;;;;2.70;1.20;;;29.50;48.60;;;;;;4245733;28;20055;-71
2021/10/26 03:41:47;;;;;;;3.55;1.10;;;29.50;48.60;;;;;;4249245;27;20059;-74
2021/10/26 03:43:51;;;;;;;1.92;1.05;;;29.50;48.50;;;;;;4258823;27;20053;-72
2021/10/26 03:45:54;;;;;;;1.90;1.00;;;29.50;48.50;;;;;;4260936;27;20050;-74
2021/10/26 03:47:58;;;;;;;2.13;0.90;;;29.50;48.60;;;;;;4250985;27;20456;-72
2021/10/26 03:50:02;;;;;;;1.67;1.00;;;29.50;48.50;;;;;;4262591;27;20080;-74
2021/10/26 03:52:05;;;;;;;2.30;1.13;;;29.50;48.50;;;;;;4254269;27;20108;-73
2021/10/26 03:54:08;;;;;;;3.90;1.10;;;29.50;48.50;;;;;;4258078;27;20050;-67
2021/10/26 03:56:11;;;;;;;2.35;0.85;;;29.50;48.50;;;;;;4260754;27;20043;-74
2021/10/26 03:58:14;;;;;;;1.98;0.98;;;29.50;48.50;;;;;;4250573;27;20047;-69
2021/10/26 04:00:17;;;;;;;2.50;1.20;;;29.50;48.50;;;;;;4244386;27;20507;-74
2021/10/26 04:02:24;;;;;;;1.40;0.80;;;29.50;48.50;;;;;;4254819;27;20498;-75
2021/10/26 04:04:29;;;;;;;2.50;1.25;;;29.50;48.50;;;;;;4258013;27;20047;-74
2021/10/26 04:06:33;;;;;;;2.20;1.00;;;29.50;48.50;;;;;;4260983;27;20495;-69
2021/10/26 04:08:51;;;;;;;1.85;0.80;;;29.50;48.50;;;;;;4250879;27;20523;-73
2021/10/26 04:10:57;;;;;;;2.47;1.00;;;29.50;48.50;;;;;;4262667;27;20524;-71
2021/10/26 04:13:02;;;;;;;2.42;1.10;;;29.50;48.40;;;;;;4252250;27;20058;-70
2021/10/26 04:15:06;;;;;;;1.70;0.90;;;29.50;48.50;;;;;;4260499;27;20651;-72
2021/10/26 04:17:10;;;;;;;2.80;1.23;;;29.50;48.50;;;;;;4260656;27;20062;-72
2021/10/26 04:19:13;;;;;;;1.50;0.90;;;29.50;48.40;;;;;;4251359;27;20077;-71
2021/10/26 04:21:17;;;;;;;2.13;0.90;;;29.50;48.40;;;;;;4262403;27;20051;-73
2021/10/26 04:23:21;;;;;;;1.73;0.77;;;29.50;48.40;;;;;;4252521;27;20518;-72
2021/10/26 04:25:24;;;;;;;2.80;1.10;;;29.50;48.40;;;;;;4260859;27;20099;-69
2021/10/26 04:27:27;;;;;;;2.65;1.10;;;29.50;48.40;;;;;;4264027;27;20100;-72
2021/10/26 04:29:30;;;;;;;2.08;1.10;;;29.50;48.40;;;;;;4253661;27;20050;-74
2021/10/26 04:31:33;;;;;;;2.78;1.00;;;29.50;48.30;;;;;;4265222;27;20483;-67
2021/10/26 04:33:36;;;;;;;2.65;0.95;;;29.50;48.30;;;;;;4255991;27;20431;-65
2021/10/26 04:35:40;;;;;;;2.63;1.13;;;29.50;48.30;;;;;;4262564;27;20586;-72
2021/10/26 04:37:45;;;;;;;4.05;1.00;;;29.50;48.30;;;;;;4263822;27;20047;-73
2021/10/26 04:39:48;;;;;;;1.48;0.90;;;29.50;48.30;;;;;;4253678;27;20083;-67
2021/10/26 04:41:51;;;;;;;2.42;1.33;;;29.50;48.30;;;;;;4246887;27;20506;-73
2021/10/26 04:43:55;;;;;;;1.40;0.93;;;29.50;48.30;;;;;;4256083;27;20602;-74
2021/10/26 04:45:58;;;;;;;2.20;1.00;;;29.40;48.20;;;;;;4261823;27;20066;-73
2021/10/26 04:48:01;;;;;;;1.70;0.82;;;29.40;48.20;;;;;;4263586;27;20059;-74
2021/10/26 04:50:05;;;;;;;3.13;1.30;;;29.50;48.20;;;;;;4253714;27;20054;-73
2021/10/26 04:52:08;;;;;;;1.77;0.90;;;29.40;48.20;;;;;;4265377;27;20502;-73
2021/10/26 04:54:13;;;;;;;2.42;1.20;;;29.50;48.20;;;;;;4256523;27;20467;-71
2021/10/26 04:56:16;;;;;;;1.58;0.77;;;29.40;48.70;;;;;;4261214;27;20051;-69
2021/10/26 04:58:19;;;;;;;1.00;0.88;;;29.50;48.20;;;;;;4263140;27;20051;-73
2021/10/26 05:00:22;;;;;;;1.90;1.00;;;29.40;48.20;;;;;;4253205;27;20054;-74
2021/10/26 05:02:25;;;;;;;3.15;1.10;;;29.40;48.20;;;;;;4265166;27;20050;-73
2021/10/26 05:04:28;;;;;;;1.73;1.10;;;29.40;48.20;;;;;;4238330;27;20047;-69
2021/10/26 05:06:31;;;;;;;2.47;1.08;;;29.40;48.20;;;;;;4259905;27;20055;-73
2021/10/26 05:08:34;;;;;;;4.03;1.52;;;29.50;48.30;;;;;;4263142;27;20440;-72
2021/10/26 05:10:38;;;;;;;1.80;1.00;;;29.50;48.30;;;;;;4253192;27;20053;-72
2021/10/26 05:12:42;;;;;;;2.20;0.95;;;29.40;48.20;;;;;;4264776;27;20464;-70
2021/10/26 05:14:48;;;;;;;2.22;1.40;;;29.40;48.20;;;;;;4256674;27;20052;-68
2021/10/26 05:16:53;;;;;;;6.68;1.83;;;29.50;48.30;;;;;;4260019;27;20051;-66
2021/10/26 05:18:59;;;;;;;1.88;1.02;;;29.40;48.20;;;;;;4263249;27;20043;-67
2021/10/26 05:21:04;;;;;;;3.08;1.10;;;29.40;48.20;;;;;;4259351;27;20047;-67
2021/10/26 05:23:09;;;;;;;1.90;0.93;;;29.50;48.30;;;;;;4247422;27;20108;-71
2021/10/26 05:25:13;;;;;;;2.20;1.13;;;29.40;48.20;;;;;;4253083;27;20059;-71
2021/10/26 05:27:19;;;;;;;1.58;0.90;;;29.40;48.20;;;;;;4247712;27;20077;-73
2021/10/26 05:29:22;;;;;;;2.08;1.17;;;29.40;48.20;;;;;;4249096;27;20487;-72
2021/10/26 05:31:25;;;;;;;1.80;1.20;;;29.40;48.20;;;;;;4259109;27;20170;-76
2021/10/26 05:33:34;;;;;;;2.47;1.20;;;29.40;48.20;;;;;;4247685;27;20050;-72
2021/10/26 05:35:38;;;;;;;1.83;1.00;;;29.40;48.20;;;;;;4233251;27;20144;-76
2021/10/26 05:37:41;;;;;;;2.58;1.15;;;29.40;48.20;;;;;;4260727;27;20115;-74
2021/10/26 05:39:44;;;;;;;3.35;1.33;;;29.40;48.20;;;;;;4262883;27;20047;-68
2021/10/26 05:41:47;;;;;;;2.17;1.08;;;29.40;48.20;;;;;;4253232;27;20398;-69
2021/10/26 05:43:51;;;;;;;2.85;1.48;;;29.40;48.10;;;;;;4264521;27;20062;-69
2021/10/26 05:45:55;;;;;;;3.17;1.55;;;29.40;48.20;;;;;;4260470;27;20544;-73
2021/10/26 05:47:58;;;;;;;2.22;1.10;;;29.40;48.10;;;;;;4251325;27;20051;-69
2021/10/26 05:50:02;;;;;;;2.47;1.30;;;29.40;48.20;;;;;;4248702;27;20047;-68
2021/10/26 05:52:05;;;;;;;2.80;1.00;;;29.40;48.20;;;;;;4258604;27;20055;-73
2021/10/26 05:54:09;;;;;;;5.30;1.73;;;29.40;48.20;;;;;;4247324;27;20051;-67
2021/10/26 05:56:12;;;;;;;2.53;1.33;;;29.40;48.20;;;;;;4254808;27;20063;-69
2021/10/26 05:58:15;;;;;;;2.85;1.30;;;29.40;48.20;;;;;;4251696;27;20533;-73
2021/10/26 06:00:19;;;;;;;3.17;1.33;;;29.30;48.10;;;;;;4248072;27;20115;-71
2021/10/26 06:02:22;;;;;;;2.42;1.10;;;29.40;48.10;;;;;;4258659;27;20051;-73
2021/10/26 06:04:25;;;;;;;3.58;1.55;;;29.40;48.70;;;;;;4246967;27;20120;-67
2021/10/26 06:06:28;;;;;;;4.63;1.20;;;29.40;48.10;;;;;;4253658;27;20054;-69
2021/10/26 06:08:32;;;;;;;4.30;1.80;;;29.40;48.10;;;;;;4252052;27;20111;-66
2021/10/26 06:10:40;;;;;;;2.10;1.20;;;29.40;48.10;;;;;;4247748;27;20085;-70
2021/10/26 06:12:51;;;;;;;2.60;1.30;;;29.40;48.10;;;;;;4258246;27;20457;-72
2021/10/26 06:14:54;;;;;;;6.53;1.50;;;29.40;48.10;;;;;;4246912;27;20063;-67
2021/10/26 06:17:01;;;;;;;2.40;1.40;;;29.40;48.10;;;;;;4254860;27;20049;-68
2021/10/26 06:19:04;;;;;;;3.83;1.60;;;29.40;48.10;;;;;;4260020;27;20051;-72
2021/10/26 06:21:07;;;;;;;2.00;1.27;;;29.40;48.10;;;;;;4261819;27;20047;-71
2021/10/26 06:23:11;;;;;;;3.50;1.83;;;29.40;48.10;;;;;;4253840;27;20051;-74
2021/10/26 06:25:18;;;;;;;4.22;1.75;;;29.40;47.80;;;;;;4257820;27;20046;-73
2021/10/26 06:27:22;;;;;;;4.70;1.90;;;29.40;47.50;;;;;;4256323;27;20499;-70
2021/10/26 06:29:29;;;;;;;6.93;2.35;;;29.30;47.30;;;;;;4257232;27;20043;-68
2021/10/26 06:31:32;;;;;;;4.20;2.22;;;29.40;47.10;;;;;;4256035;27;20055;-72
2021/10/26 06:33:37;;;;;;;6.18;2.30;;;29.40;47.00;;;;;;4254802;27;20043;-72
2021/10/26 06:35:40;;;;;;;4.65;2.30;;;29.30;46.70;;;;;;4254077;27;20042;-74
2021/10/26 06:37:44;;;;;;;3.97;2.08;;;29.30;46.70;;;;;;4251865;27;20050;-68
2021/10/26 06:39:54;;;;;;;4.10;2.40;;;29.30;46.50;;;;;;4253619;27;20415;-68
2021/10/26 06:41:57;;;;;;;4.25;2.90;;;29.30;46.40;;;;;;4254445;27;20046;-70
2021/10/26 06:44:02;;;;;;;7.30;2.83;;;29.30;46.40;;;;;;4254184;27;20051;-70
2021/10/26 06:46:08;;;;;;;6.18;2.40;;;29.20;46.20;;;;;;4254233;27;20038;-70
2021/10/26 06:48:12;;;;;;;4.55;2.58;;;29.20;46.10;;;;;;4249324;27;20058;-68
2021/10/26 06:50:17;;;;;;;3.90;2.08;;;29.20;46.00;;;;;;4254301;27;20055;-68
2021/10/26 06:52:20;;;;;;;4.88;2.10;;;29.20;46.00;;;;;;4253445;27;20047;-74
2021/10/26 06:54:24;;;;;;;6.10;2.15;;;29.10;45.80;;;;;;4251957;27;20066;-70
2021/10/26 06:56:28;;;;;;;2.75;1.83;;;29.10;45.80;;;;;;4254152;27;20050;-71
2021/10/26 06:58:31;;;;;;;4.30;1.70;;;29.00;45.70;;;;;;4249673;27;20057;-70
2021/10/26 07:00:34;;;;;;;2.60;1.85;;;29.00;45.70;;;;;;4254062;27;20043;-74
2021/10/26 07:02:45;;;;;;;2.60;1.83;;;29.00;45.70;;;;;;4253915;27;20038;-71
2021/10/26 07:04:48;;;;;;;3.78;1.90;;;29.00;45.70;;;;;;4254256;27;20099;-73
2021/10/26 07:06:52;;;;;;;3.83;1.55;;;28.90;45.60;;;;;;4256139;27;20047;-71
2021/10/26 07:08:55;;;;;;;3.08;1.88;;;28.90;45.60;;;;;;4251634;27;20054;-69
2021/10/26 07:11:00;;;;;;;5.15;1.80;;;28.90;45.60;;;;;;4235904;27;20063;-72
2021/10/26 07:13:04;;;;;;;4.15;1.85;;;28.90;45.70;;;;;;4252883;27;20544;-69
2021/10/26 07:15:09;;;;;;;4.18;2.03;;;28.90;45.50;;;;;;4254088;27;20589;-71
2021/10/26 07:17:12;;;;;;;4.95;1.65;;;28.80;45.60;;;;;;4254259;27;20442;-71
2021/10/26 07:19:17;;;;;;;4.72;1.90;;;28.80;45.50;;;;;;4253241;27;20430;-69
2021/10/26 07:21:20;;;;;;;4.75;1.75;;;28.80;45.60;;;;;;4253563;27;20047;-75
2021/10/26 07:23:24;;;;;;;3.10;2.03;;;28.80;45.50;;;;;;4250783;27;20147;-75
2021/10/26 07:25:27;;;;;;;2.88;1.55;;;28.70;45.40;;;;;;4251043;27;20047;-74
2021/10/26 07:27:31;;;;;;;3.58;1.80;;;28.70;45.40;;;;;;4253885;27;20047;-74
2021/10/26 07:29:34;;;;;;;2.55;1.90;;;28.70;45.50;;;;;;4252985;27;20058;-75
2021/10/26 07:31:38;;;;;;;3.53;1.80;;;28.70;45.50;;;;;;4253315;27;20415;-70
2021/10/26 07:33:41;;;;;;;12.23;2.78;;;28.70;45.50;;;;;;4252589;27;20047;-74
2021/10/26 07:35:47;;;;;;;3.35;1.70;;;28.70;45.50;;;;;;4253619;27;20043;-76
2021/10/26 07:37:50;;;;;;;3.10;1.90;;;28.60;45.40;;;;;;4253730;27;20526;-71
2021/10/26 07:39:55;;;;;;;4.55;2.47;;;28.60;45.40;;;;;;4252085;27;20058;-71
2021/10/26 07:42:00;;;;;;;4.35;1.98;;;28.50;45.40;;;;;;4255707;27;20066;-72
2021/10/26 07:44:05;;;;;;;2.45;1.55;;;28.60;45.60;;;;;;4261824;27;20049;-70
2021/10/26 07:46:08;;;;;;;5.05;1.90;;;28.50;45.50;;;;;;4257488;27;20053;-71
2021/10/26 07:48:11;;;;;;;5.82;2.25;;;28.50;45.60;;;;;;4265247;27;20612;-72
2021/10/26 07:50:14;;;;;;;3.40;1.70;;;28.50;45.60;;;;;;4261917;27;20050;-76
2021/10/26 07:52:18;;;;;;;3.63;2.05;;;28.50;45.70;;;;;;4260218;27;20055;-74
2021/10/26 07:54:29;;;;;;;2.78;2.03;;;28.50;45.70;;;;;;4261696;27;20051;-71
2021/10/26 07:56:36;;;;;;;5.05;2.10;;;28.50;45.80;;;;;;4245563;28;20040;-74
2021/10/26 07:58:41;;;;;;;3.90;2.08;;;28.50;45.80;;;;;;4263240;27;20046;-68
2021/10/26 08:00:44;;;;;;;4.53;2.35;;;28.50;45.90;;;;;;4266043;27;20096;-67
2021/10/26 08:02:48;;;;;;;7.20;2.10;;;28.40;46.50;;;;;;4262926;27;20339;-71
2021/10/26 08:04:55;;;;;;;5.95;2.22;;;28.40;46.00;;;;;;4260756;27;20043;-69
2021/10/26 08:07:00;;;;;;;10.13;2.25;;;28.40;46.10;;;;;;4258124;27;20055;-71
2021/10/26 08:09:03;;;;;;;6.03;2.25;;;28.40;46.10;;;;;;4248589;27;20059;-71
2021/10/26 08:11:07;;;;;;;4.47;2.30;;;28.40;46.20;;;;;;4259897;27;20426;-72
2021/10/26 08:13:12;;;;;;;5.70;2.35;;;28.40;46.30;;;;;;4257511;27;20122;-74
2021/10/26 08:15:15;;;;;;;;;;;28.40;46.40;;;;;;4258312;27;20051;-74
2021/10/26 08:17:18;;;;;;;5.97;2.20;;;28.40;46.50;;;;;;4258680;27;19926;-75
2021/10/26 08:19:22;;;;;;;5.20;2.50;;;28.30;46.40;;;;;;4250257;27;20128;-72
2021/10/26 08:21:25;;;;;;;4.68;2.15;;;28.30;46.50;;;;;;4259731;27;20089;-72
2021/10/26 08:23:28;;;;;;;5.05;2.05;;;28.30;46.50;;;;;;4249934;27;20403;-67
2021/10/26 08:25:34;;;;;;;7.57;3.05;;;28.30;46.60;;;;;;4250736;27;20388;-72
2021/10/26 08:27:38;;;;;;;3.83;2.55;;;28.40;46.70;;;;;;4258487;27;20043;-70
2021/10/26 08:29:48;;;;;;;3.95;2.50;;;28.30;46.70;;;;;;4248545;27;20055;-69
2021/10/26 08:34:42;;;;;;;4.22;2.08;;;28.30;46.90;;;;;;4248333;27;20119;-71
2021/10/26 08:36:45;;;;;;;6.03;2.60;;;28.30;46.90;;;;;;4257424;27;20051;-71
2021/10/26 08:38:48;;;;;;;6.22;2.40;;;28.40;47.10;;;;;;4232759;27;20052;-75
2021/10/26 08:40:52;;;;;;;6.20;2.13;;;28.30;47.10;;;;;;4249219;27;20142;-73
2021/10/26 08:42:57;;;;;;;4.95;2.25;;;28.30;47.10;;;;;;4259447;27;20104;-75
2021/10/26 08:45:02;;;;;;;4.20;2.30;;;28.30;47.10;;;;;;4247987;27;20059;-69
2021/10/26 08:47:06;;;;;;;4.28;2.40;;;28.30;47.20;;;;;;4257476;27;20047;-74
2021/10/26 08:49:11;;;;;;;5.63;2.20;;;28.40;47.30;;;;;;4250706;27;20059;-70
2021/10/26 08:51:14;;;;;;;;;;;28.40;47.40;;;;;;4250084;27;20451;-74
2021/10/26 08:53:17;;;;;;;4.57;2.10;;;28.40;47.40;;;;;;4259602;27;19919;-74
2021/10/26 08:55:21;;;;;;;4.63;2.23;;;28.30;47.40;;;;;;4247896;27;20054;-74
2021/10/26 08:57:25;;;;;;;4.97;2.60;;;28.30;47.40;;;;;;4250614;27;20471;-72
2021/10/26 08:59:29;;;;;;;5.75;2.47;;;28.40;47.50;;;;;;4262039;27;20054;-73
2021/10/26 09:01:33;;;;;;;6.28;2.30;;;28.40;47.50;;;;;;4263317;27;20058;-72
2021/10/26 09:03:39;;;;;;;6.28;2.38;;;28.40;47.50;;;;;;4258926;27;20058;-73
2021/10/26 09:05:45;;;;;;;6.75;2.13;;;28.30;47.40;;;;;;4265223;27;20487;-67
2021/10/26 09:08:05;;;;;;;7.85;2.60;;;28.40;47.50;;;;;;4254672;27;20051;-71
2021/10/26 09:10:10;;;;;;;8.30;2.75;;;28.40;47.50;;;;;;4264520;27;20051;-70
2021/10/26 09:16:51;;;;;;;9.85;2.65;;;28.40;47.70;;;;;;4250400;27;20047;-70
2021/10/26 09:18:57;;;;;;;8.18;2.90;;;28.30;47.80;;;;;;4248747;27;20047;-69
2021/10/26 09:21:01;;;;;;;8.25;2.90;;;28.40;48.40;;;;;;4250603;27;20054;-72
2021/10/26 09:23:05;;;;;;;9.90;2.63;;;28.40;48.70;;;;;;4251756;27;20055;-70
2021/10/26 09:25:09;;;;;;;9.20;2.60;;;28.40;48.10;;;;;;4255013;27;20116;-72
2021/10/26 09:27:17;;;;;;;;;;;28.40;48.30;;;;;;4262082;27;20050;-72
2021/10/26 09:29:39;;;;;;;7.28;2.30;;;28.40;49.30;;;;;;4254295;27;20376;-70
2021/10/26 09:31:43;;;;;;;8.10;2.53;;;28.40;48.20;;;;;;4263724;27;20115;-71
2021/10/26 09:33:58;;;;;;;9.48;2.28;;;28.40;48.20;;;;;;4251433;27;20058;-71
2021/10/26 09:36:21;;;;;;;9.18;2.72;;;28.50;48.10;;;;;;4246839;27;20051;-71
2021/10/26 09:38:28;;;;;;;9.95;2.65;;;28.50;48.10;;;;;;4250689;27;20047;-73
2021/10/26 09:40:42;;;;;;;6.80;2.70;;;28.50;48.30;;;;;;4258046;27;20150;-69
2021/10/26 09:42:48;;;;;;;5.43;2.20;;;28.50;48.10;;;;;;4262292;27;20136;-70
2021/10/26 09:44:56;;;;;;;17.02;3.15;;;28.60;48.10;;;;;;4252351;27;20046;-69
2021/10/26 09:47:02;;;;;;;11.38;2.72;;;28.50;48.60;;;;;;4246556;27;20042;-73
2021/10/26 09:49:20;;;;;;;11.93;2.60;;;28.60;47.90;;;;;;4250938;27;20063;-73
2021/10/26 09:51:43;;;;;;;4.50;2.25;;;28.60;47.80;;;;;;4231516;27;20519;-74
2021/10/26 09:53:55;;;;;;;6.55;2.60;;;28.60;47.70;;;;;;4236381;27;20051;-74
2021/10/26 09:56:02;;;;;;;9.85;2.60;;;28.60;47.70;;;;;;4252766;27;20062;-73
2021/10/26 09:58:10;;;;;;;5.93;2.30;;;28.60;47.60;;;;;;4247906;27;20415;-75
2021/10/26 10:00:18;;;;;;;5.30;1.92;;;28.60;47.60;;;;;;4258201;27;20055;-72
2021/10/26 10:02:23;;;;;;;6.20;1.88;;;28.60;47.70;;;;;;4246333;27;20082;-73
2021/10/26 10:04:37;;;;;;;4.68;1.50;;;28.60;48.30;;;;;;4255570;27;20111;-74
2021/10/26 10:06:50;;;;;;;11.55;2.83;;;28.60;47.70;;;;;;4249492;27;20051;-72
2021/10/26 10:08:53;;;;;;;8.30;2.30;;;28.60;47.80;;;;;;4247170;27;20047;-74
2021/10/26 10:11:10;;;;;;;5.05;2.05;;;28.50;47.70;;;;;;4257274;27;20399;-72
2021/10/26 10:13:13;;;;;;;8.80;2.55;;;28.60;47.80;;;;;;4253409;27;20116;-74
2021/10/26 10:15:18;;;;;;;7.45;2.20;;;28.50;47.80;;;;;;4258600;27;20062;-72
2021/10/26 10:17:22;;;;;;;7.53;2.60;;;28.50;47.80;;;;;;4246511;27;20050;-74
2021/10/26 10:19:27;;;;;;;5.90;2.40;;;28.50;47.80;;;;;;4250295;27;20059;-73
2021/10/26 10:21:31;;;;;;;10.05;2.35;;;28.40;47.80;;;;;;4262641;27;21063;-73
2021/10/26 10:23:36;;;;;;;4.55;1.90;;;28.50;47.90;;;;;;4262147;27;20055;-74
2021/10/26 10:25:42;;;;;;;6.55;2.10;;;28.40;48.00;;;;;;4249410;27;20054;-73
2021/10/26 10:27:48;;;;;;;7.90;2.50;;;28.50;48.10;;;;;;4246372;27;20062;-72
2021/10/26 10:29:52;;;;;;;4.57;1.90;;;28.50;48.10;;;;;;4249876;27;20533;-73
2021/10/26 10:31:56;;;;;;;6.05;1.92;;;28.50;48.10;;;;;;4254215;27;20051;-74
2021/10/26 10:33:59;;;;;;;6.05;2.05;;;28.50;48.10;;;;;;4246253;27;20047;-72
2021/10/26 10:36:04;;;;;;;5.60;2.38;;;28.50;48.10;;;;;;4247335;27;20081;-73
2021/10/26 10:38:09;;;;;;;6.95;2.15;;;28.50;48.20;;;;;;4245996;27;20055;-65
2021/10/26 10:40:12;;;;;;;6.22;2.30;;;28.50;48.20;;;;;;4252432;27;20472;-75
2021/10/26 10:42:29;;;;;;;5.50;2.25;;;28.50;48.20;;;;;;4254099;27;20051;-70
2021/10/26 10:44:37;;;;;;;4.97;2.65;;;28.50;48.20;;;;;;4246247;27;20055;-75
2021/10/26 10:46:43;;;;;;;5.72;2.58;;;28.60;48.30;;;;;;4251253;27;20058;-69
2021/10/26 10:48:46;;;;;;;5.05;2.13;;;28.60;48.90;;;;;;4263228;27;20055;-69
2021/10/26 10:51:06;;;;;;;4.90;2.10;;;28.60;48.30;;;;;;4256517;27;20375;-73
2021/10/26 10:53:14;;;;;;;7.32;2.17;;;28.60;48.40;;;;;;4259120;27;20054;-68
2021/10/26 10:55:22;;;;;;;6.50;2.83;;;28.50;48.40;;;;;;4260868;27;20051;-75
2021/10/26 10:57:30;;;;;;;5.15;2.28;;;28.50;48.40;;;;;;4251613;27;20535;-69